Time;durP1;ratioP1;P1;durP2;ratioP2;P2;SDS_P1;SDS_P2;PMS_P1;PMS_P2;Temp;Humidity;BMP_temperature;BMP_pressure;BME280_temperature;BME280_humidity;BME280_pressure;Samples;Min_cycle;Max_cycle;Signal;HPM_P1;HPM_P2
2023/06/13 00:01:20;;;;;;;0.65;0.20;;;;;;;21.37;38.87;101119.53;4978433;28;20022;-65
2023/06/13 00:03:47;;;;;;;0.50;0.20;;;;;;;21.45;38.86;101120.19;4997929;28;20034;-65
2023/06/13 00:06:15;;;;;;;0.70;0.20;;;;;;;21.29;38.97;101123.56;4986476;28;20053;-65
2023/06/13 00:08:45;;;;;;;0.25;0.25;;;;;;;21.38;39.12;101120.31;5003086;28;20034;-66
2023/06/13 00:11:11;;;;;;;1.75;0.40;;;;;;;21.37;38.96;101119.53;5011382;28;20025;-66
2023/06/13 00:13:39;;;;;;;0.20;0.13;;;;;;;21.25;38.77;101111.88;4990353;28;20049;-66
2023/06/13 00:16:05;;;;;;;0.93;0.30;;;;;;;21.29;39.40;101114.59;5008607;28;20048;-65
2023/06/13 00:18:31;;;;;;;1.23;0.38;;;;;;;21.25;39.19;101113.88;4992729;28;20097;-64
2023/06/13 00:20:58;;;;;;;1.00;0.30;;;;;;;21.15;39.93;101117.56;5008913;28;20018;-67
2023/06/13 00:23:24;;;;;;;0.40;0.25;;;;;;;20.95;40.02;101109.22;4993022;28;20034;-65
2023/06/13 00:25:50;;;;;;;0.20;0.17;;;;;;;20.92;40.15;101104.56;5010920;28;20036;-65
2023/06/13 00:28:15;;;;;;;0.20;0.10;;;;;;;20.94;39.93;101107.66;5007669;28;20604;-66
2023/06/13 00:30:41;;;;;;;0.98;0.57;;;;;;;20.88;40.01;101092.09;4995282;28;20025;-65
2023/06/13 00:33:07;;;;;;;0.73;0.40;;;;;;;20.79;40.61;101100.06;5019014;28;20041;-65
2023/06/13 00:35:32;;;;;;;0.63;0.30;;;;;;;20.69;40.68;101096.31;5010650;28;20034;-65
2023/06/13 00:37:58;;;;;;;0.65;0.30;;;;;;;20.59;40.99;101102.69;4992716;28;20068;-65
2023/06/13 00:40:26;;;;;;;0.65;0.25;;;;;;;20.58;40.68;101101.13;4987326;28;20121;-65
2023/06/13 00:42:52;;;;;;;9.85;0.75;;;;;;;20.46;41.14;101102.44;5002368;28;20029;-65
2023/06/13 00:45:18;;;;;;;0.98;0.40;;;;;;;20.44;41.08;101095.84;4993027;28;20403;-64
2023/06/13 00:47:45;;;;;;;0.57;0.43;;;;;;;20.29;41.07;101087.03;5010572;28;20034;-65
2023/06/13 00:50:12;;;;;;;0.52;0.40;;;;;;;20.19;41.18;101092.66;4978710;28;20037;-64
2023/06/13 00:52:39;;;;;;;0.55;0.35;;;;;;;20.20;41.27;101091.47;5016447;28;20057;-65
2023/06/13 00:55:06;;;;;;;0.40;0.30;;;;;;;20.23;41.42;101096.09;5011050;28;20038;-64
2023/06/13 00:57:53;;;;;;;0.30;0.30;;;;;;;20.21;41.36;101093.03;4989822;28;20378;-64
2023/06/13 01:00:22;;;;;;;0.50;0.40;;;;;;;20.12;41.51;101100.91;4983441;28;20046;-65
2023/06/13 01:02:49;;;;;;;0.98;0.40;;;;;;;20.00;41.75;101094.00;4973208;28;20101;-65
2023/06/13 01:05:14;;;;;;;0.32;0.20;;;;;;;20.05;41.69;101096.31;4984152;28;20038;-65
2023/06/13 01:07:41;;;;;;;0.68;0.30;;;;;;;19.81;42.16;101089.13;4982353;28;20089;-65
2023/06/13 01:10:08;;;;;;;0.52;0.40;;;;;;;19.61;42.74;101088.16;4972778;28;20042;-65
2023/06/13 01:12:45;;;;;;;0.38;0.38;;;;;;;19.58;42.86;101086.25;4985919;28;20044;-64
2023/06/13 01:15:16;;;;;;;1.25;0.70;;;;;;;19.60;42.79;101081.94;4987077;28;20117;-65
2023/06/13 01:17:57;;;;;;;0.20;0.20;;;;;;;19.53;43.04;101081.97;4969035;28;20102;-65
2023/06/13 01:20:26;;;;;;;0.57;0.30;;;;;;;19.41;43.22;101085.22;4985479;28;20619;-64
2023/06/13 01:23:22;;;;;;;1.08;0.75;;;;;;;19.32;43.23;101082.16;4973392;28;20281;-64
2023/06/13 01:26:03;;;;;;;1.00;0.35;;;;;;;19.10;43.85;101080.00;4997687;28;20038;-63
2023/06/13 01:28:33;;;;;;;1.17;0.30;;;;;;;19.23;43.84;101081.06;4989031;28;20035;-64
2023/06/13 01:31:07;;;;;;;0.40;0.33;;;;;;;19.27;43.67;101076.34;4983506;28;20064;-65
2023/06/13 01:33:35;;;;;;;0.38;0.30;;;;;;;19.25;44.00;101081.41;4987558;28;20829;-65
2023/06/13 01:36:01;;;;;;;0.28;0.28;;;;;;;19.29;43.94;101082.16;4992293;28;20526;-63
2023/06/13 01:38:27;;;;;;;0.40;0.40;;;;;;;19.25;43.96;101079.47;4991253;28;20484;-64
2023/06/13 01:40:52;;;;;;;0.70;0.30;;;;;;;19.24;43.95;101071.69;5008606;28;20107;-65
2023/06/13 01:43:18;;;;;;;0.65;0.40;;;;;;;19.26;44.22;101072.06;4994714;28;20118;-64
2023/06/13 01:45:44;;;;;;;0.38;0.30;;;;;;;19.41;43.48;101063.38;5004196;28;20042;-64
2023/06/13 01:48:18;;;;;;;0.57;0.57;;;;;;;19.46;43.64;101065.66;5008617;28;20493;-65
2023/06/13 01:50:46;;;;;;;0.45;0.38;;;;;;;19.34;44.06;101068.88;4987537;28;20482;-64
2023/06/13 01:53:32;;;;;;;0.40;0.40;;;;;;;19.27;44.46;101073.59;5010252;28;20034;-65
2023/06/13 01:56:03;;;;;;;1.20;0.52;;;;;;;19.29;44.88;101066.56;5006487;28;20061;-65
2023/06/13 01:58:32;;;;;;;0.77;0.40;;;;;;;19.22;44.57;101052.19;5018880;28;20029;-64
2023/06/13 02:01:03;;;;;;;1.17;0.60;;;;;;;19.09;44.96;101065.56;4991673;28;20026;-64
2023/06/13 02:03:28;;;;;;;0.45;0.30;;;;;;;19.09;44.93;101059.31;5007627;28;20041;-64
2023/06/13 02:05:54;;;;;;;0.63;0.30;;;;;;;19.00;44.97;101061.72;5007777;28;20033;-65
2023/06/13 02:08:19;;;;;;;0.93;0.47;;;;;;;19.03;45.22;101075.34;5011012;28;20026;-63
2023/06/13 02:10:48;;;;;;;0.68;0.50;;;;;;;18.93;45.41;101066.06;5005520;28;20026;-64
2023/06/13 02:13:14;;;;;;;1.77;0.50;;;;;;;18.87;45.39;101066.91;5010915;28;20041;-64
2023/06/13 02:15:40;;;;;;;0.30;0.30;;;;;;;18.84;45.73;101073.16;4994155;28;20026;-64
2023/06/13 02:18:09;;;;;;;1.05;0.60;;;;;;;18.83;45.56;101064.16;5008674;28;20045;-64
2023/06/13 02:20:34;;;;;;;0.47;0.40;;;;;;;18.72;45.80;101062.69;5007313;28;20089;-64
2023/06/13 02:23:02;;;;;;;0.95;0.47;;;;;;;18.77;46.16;101063.06;5012533;28;20061;-63
2023/06/13 02:25:27;;;;;;;0.60;0.60;;;;;;;18.64;46.56;101063.94;5010133;28;20044;-64
2023/06/13 02:27:53;;;;;;;0.30;0.30;;;;;;;18.60;46.54;101057.72;5008405;28;20034;-65
2023/06/13 02:30:19;;;;;;;0.40;0.20;;;;;;;18.52;46.93;101064.38;4992893;28;20046;-64
2023/06/13 02:32:46;;;;;;;1.13;0.50;;;;;;;18.46;47.01;101064.03;4976891;28;20026;-64
2023/06/13 02:35:13;;;;;;;0.47;0.30;;;;;;;18.49;47.08;101062.44;4964795;28;20030;-64
2023/06/13 02:37:41;;;;;;;0.35;0.30;;;;;;;18.48;47.26;101058.16;4996039;28;20741;-66
2023/06/13 02:40:10;;;;;;;0.30;0.30;;;;;;;18.36;47.82;101058.59;5000769;28;20037;-65
2023/06/13 02:42:36;;;;;;;1.00;0.63;;;;;;;18.31;47.61;101062.50;4997251;28;20036;-64
2023/06/13 02:45:05;;;;;;;0.50;0.38;;;;;;;18.31;47.99;101056.28;5001537;28;20085;-64
2023/06/13 02:47:31;;;;;;;1.25;0.40;;;;;;;18.27;48.18;101067.22;5005446;28;20034;-63
2023/06/13 02:49:56;;;;;;;0.60;0.60;;;;;;;18.29;47.88;101064.84;5003670;28;20479;-63
2023/06/13 02:52:23;;;;;;;0.47;0.30;;;;;;;18.33;48.16;101060.16;5010200;28;20040;-64
2023/06/13 02:54:49;;;;;;;0.60;0.52;;;;;;;18.42;48.02;101059.72;4993682;28;20045;-64
2023/06/13 02:57:14;;;;;;;0.60;0.50;;;;;;;18.46;48.23;101057.78;4992488;28;20112;-63
2023/06/13 02:59:42;;;;;;;0.95;0.47;;;;;;;18.40;48.54;101060.13;4984379;28;20557;-63
2023/06/13 03:02:08;;;;;;;0.85;0.60;;;;;;;18.43;48.35;101053.13;4988695;28;20455;-64
2023/06/13 03:04:33;;;;;;;0.28;0.28;;;;;;;18.44;48.80;101054.69;4981843;28;20057;-63
2023/06/13 03:07:00;;;;;;;0.55;0.40;;;;;;;18.52;48.15;101062.44;4989700;28;20572;-64
2023/06/13 03:09:25;;;;;;;2.28;0.45;;;;;;;18.39;48.78;101046.91;4992821;28;20183;-64
2023/06/13 03:11:53;;;;;;;1.08;0.50;;;;;;;18.40;48.81;101054.69;4993444;28;20034;-65
2023/06/13 03:14:19;;;;;;;0.38;0.38;;;;;;;18.25;49.32;101049.69;5000814;28;20061;-64
2023/06/13 03:17:06;;;;;;;1.52;0.70;;;;;;;18.27;49.62;101052.78;5008577;28;20471;-65
2023/06/13 03:19:32;;;;;;;1.33;0.68;;;;;;;18.32;49.59;101049.63;4952491;28;20141;-64
2023/06/13 03:21:57;;;;;;;0.60;0.60;;;;;;;18.19;50.56;101048.53;4952635;28;20035;-64
2023/06/13 03:24:22;;;;;;;0.40;0.40;;;;;;;18.25;50.36;101057.88;4953822;28;20163;-65
2023/06/13 03:26:48;;;;;;;0.45;0.32;;;;;;;18.25;50.13;101050.47;4951133;28;20070;-65
2023/06/13 03:29:15;;;;;;;0.57;0.40;;;;;;;18.25;50.59;101049.69;4951488;28;20054;-65
2023/06/13 03:31:40;;;;;;;0.63;0.50;;;;;;;17.97;51.58;101043.19;4954105;28;20610;-65
2023/06/13 03:34:06;;;;;;;0.95;0.52;;;;;;;18.09;51.34;101050.13;4961881;28;20133;-64
2023/06/13 03:36:34;;;;;;;0.70;0.60;;;;;;;18.24;51.22;101045.41;4969365;28;20503;-64
2023/06/13 03:39:01;;;;;;;0.70;0.40;;;;;;;18.18;51.61;101046.97;4954541;28;20041;-66
2023/06/13 03:41:28;;;;;;;1.38;0.88;;;;;;;17.99;51.86;101054.47;4981212;28;20014;-65
2023/06/13 03:43:53;;;;;;;0.75;0.50;;;;;;;18.14;52.17;101043.50;4953700;28;20058;-63
2023/06/13 03:46:19;;;;;;;0.93;0.52;;;;;;;18.16;52.40;101041.91;4969612;28;20066;-63
2023/06/13 03:48:44;;;;;;;0.52;0.50;;;;;;;18.14;52.18;101047.00;4952566;28;20038;-63
2023/06/13 03:51:15;;;;;;;0.60;0.25;;;;;;;18.17;52.38;101045.44;4948845;28;20118;-65
2023/06/13 03:53:42;;;;;;;0.40;0.30;;;;;;;18.17;52.92;101048.16;4972535;28;20042;-65
2023/06/13 03:56:07;;;;;;;0.65;0.32;;;;;;;18.09;53.19;101046.63;4982118;28;20034;-65
2023/06/13 03:58:33;;;;;;;0.55;0.40;;;;;;;18.03;53.68;101049.00;4977012;28;20045;-66
2023/06/13 04:01:00;;;;;;;0.50;0.50;;;;;;;18.16;53.31;101049.31;4990899;28;20398;-65
2023/06/13 04:03:29;;;;;;;1.20;0.55;;;;;;;18.16;53.34;101049.31;4994584;28;20037;-67
2023/06/13 04:05:55;;;;;;;0.77;0.50;;;;;;;18.08;54.06;101058.72;4993767;28;20041;-66
2023/06/13 04:08:20;;;;;;;0.68;0.47;;;;;;;18.03;54.06;101057.97;4992240;28;20038;-65
2023/06/13 04:10:46;;;;;;;0.43;0.43;;;;;;;18.08;54.53;101042.38;4990484;28;20075;-65
2023/06/13 04:13:14;;;;;;;0.63;0.40;;;;;;;18.18;54.14;101042.31;5007531;28;20112;-64
2023/06/13 04:15:41;;;;;;;0.28;0.28;;;;;;;18.16;54.55;101044.66;4990510;28;20088;-64
2023/06/13 04:18:09;;;;;;;0.85;0.60;;;;;;;18.17;55.26;101042.72;4991353;28;20165;-63
2023/06/13 04:20:34;;;;;;;0.98;0.70;;;;;;;18.15;55.61;101040.38;4968907;28;20022;-64
2023/06/13 04:23:01;;;;;;;0.50;0.40;;;;;;;18.22;55.97;101042.28;5007285;28;20044;-64
2023/06/13 04:25:27;;;;;;;0.65;0.43;;;;;;;18.09;56.68;101041.97;4986526;28;20054;-64
2023/06/13 04:27:53;;;;;;;1.20;0.88;;;;;;;18.17;56.97;101034.53;4984915;28;20034;-65
2023/06/13 04:30:19;;;;;;;0.63;0.52;;;;;;;18.14;57.71;101041.53;5009096;28;20040;-64
2023/06/13 04:32:45;;;;;;;1.65;0.70;;;;;;;18.17;57.86;101029.84;4993682;28;20029;-65
2023/06/13 04:35:16;;;;;;;1.30;0.65;;;;;;;18.27;57.98;101041.88;4985425;28;20101;-65
2023/06/13 04:37:45;;;;;;;0.75;0.47;;;;;;;18.31;57.95;101037.19;5005604;28;20049;-63
2023/06/13 04:40:13;;;;;;;0.73;0.57;;;;;;;18.27;58.81;101041.88;5013497;23;20564;-66
2023/06/13 04:42:38;;;;;;;0.82;0.50;;;;;;;18.33;58.64;101038.31;5006839;28;20022;-66
2023/06/13 04:45:04;;;;;;;0.45;0.35;;;;;;;18.40;58.64;101043.78;4988002;28;20045;-65
2023/06/13 04:47:30;;;;;;;0.80;0.47;;;;;;;18.48;58.98;101045.31;5003295;28;20025;-66
2023/06/13 04:49:59;;;;;;;1.75;0.50;;;;;;;18.40;59.68;101037.53;4990374;28;20109;-65
2023/06/13 04:52:32;;;;;;;0.70;0.60;;;;;;;18.43;59.96;101036.75;5005588;28;20621;-65
2023/06/13 04:55:02;;;;;;;0.40;0.32;;;;;;;18.47;60.21;101032.06;5002814;28;20126;-65
2023/06/13 04:57:31;;;;;;;0.82;0.50;;;;;;;18.55;60.55;101030.84;4988720;28;20033;-65
2023/06/13 05:00:01;;;;;;;0.35;0.35;;;;;;;18.56;61.19;101032.41;5009315;28;20026;-65
2023/06/13 05:02:27;;;;;;;1.23;0.70;;;;;;;18.61;61.55;101037.44;5005014;28;20034;-65
2023/06/13 05:04:52;;;;;;;1.13;0.40;;;;;;;18.76;60.77;101038.88;5008351;28;20038;-65
2023/06/13 05:07:19;;;;;;;0.95;0.70;;;;;;;18.80;61.43;101042.38;4987353;28;20040;-65
2023/06/13 05:09:45;;;;;;;0.35;0.35;;;;;;;18.80;61.60;101036.91;4993635;28;20490;-65
2023/06/13 05:12:11;;;;;;;1.27;0.63;;;;;;;18.95;61.24;101038.34;5009078;28;20490;-65
2023/06/13 05:14:39;;;;;;;0.57;0.35;;;;;;;19.51;60.29;101043.34;5007109;28;20129;-65
2023/06/13 05:17:09;;;;;;;0.60;0.50;;;;;;;20.21;58.15;101043.78;4983904;28;20048;-65
2023/06/13 05:19:37;;;;;;;0.50;0.50;;;;;;;20.91;56.08;101053.72;5006066;28;20368;-65
2023/06/13 05:22:05;;;;;;;2.22;0.68;;;;;;;21.45;54.13;101060.66;4988876;28;20092;-65
2023/06/13 05:24:31;;;;;;;0.50;0.40;;;;;;;22.02;53.09;101065.91;5003488;28;20045;-65
2023/06/13 05:26:57;;;;;;;0.70;0.50;;;;;;;22.31;52.04;101049.59;4996703;28;20052;-65
2023/06/13 05:29:23;;;;;;;1.13;0.40;;;;;;;22.53;50.93;101056.16;4995102;28;20045;-65
2023/06/13 05:31:51;;;;;;;3.42;0.57;;;;;;;22.70;50.61;101063.28;4998190;28;20447;-65
2023/06/13 05:34:16;;;;;;;0.68;0.50;;;;;;;22.71;50.82;101053.06;5003799;28;20064;-65
2023/06/13 05:36:42;;;;;;;1.52;0.75;;;;;;;22.91;50.65;101062.78;5003783;28;20066;-65
2023/06/13 05:39:08;;;;;;;0.50;0.50;;;;;;;23.14;50.32;101059.88;5002063;28;20041;-65
2023/06/13 05:41:54;;;;;;;0.45;0.43;;;;;;;23.25;49.62;101060.38;5003798;28;20566;-65
2023/06/13 05:44:19;;;;;;;1.60;1.05;;;;;;;23.34;50.50;101050.75;4908641;29;20473;-65
2023/06/13 05:46:44;;;;;;;1.33;0.50;;;;;;;23.46;50.18;101055.56;4887600;29;20079;-65
2023/06/13 05:49:10;;;;;;;3.53;0.40;;;;;;;23.65;49.91;101055.44;4874032;29;20090;-65
2023/06/13 05:51:36;;;;;;;0.45;0.30;;;;;;;23.88;50.01;101048.91;4886584;29;20051;-66
2023/06/13 05:54:02;;;;;;;0.98;0.30;;;;;;;24.14;49.56;101050.53;4914171;29;20044;-66
2023/06/13 05:56:28;;;;;;;0.60;0.38;;;;;;;24.12;48.85;101061.22;4910371;29;20505;-66
2023/06/13 05:58:53;;;;;;;0.85;0.47;;;;;;;24.17;48.98;101053.22;4892652;29;20056;-66
2023/06/13 06:01:20;;;;;;;0.90;0.40;;;;;;;24.36;48.86;101045.19;4907806;29;20130;-65
2023/06/13 06:03:46;;;;;;;0.28;0.28;;;;;;;24.36;48.31;101043.19;4892294;29;20147;-66
2023/06/13 06:06:13;;;;;;;0.65;0.65;;;;;;;24.43;48.32;101040.22;4917460;29;20528;-66
2023/06/13 06:08:38;;;;;;;0.73;0.30;;;;;;;24.36;48.66;101045.19;4909365;29;20035;-66
2023/06/13 06:11:04;;;;;;;0.98;0.70;;;;;;;24.40;48.74;101041.13;4910570;29;20035;-65
2023/06/13 06:13:29;;;;;;;0.40;0.40;;;;;;;24.52;49.36;101036.81;4922139;29;20862;-65
2023/06/13 06:15:55;;;;;;;0.77;0.63;;;;;;;24.62;49.01;101038.47;4916951;29;20107;-65
2023/06/13 06:18:21;;;;;;;1.00;0.40;;;;;;;24.68;48.85;101047.75;4913939;29;22271;-66
2023/06/13 06:20:46;;;;;;;0.38;0.30;;;;;;;24.72;48.99;101040.91;4934270;28;20407;-66
2023/06/13 06:23:13;;;;;;;0.40;0.40;;;;;;;24.81;48.39;101038.28;5009702;28;20038;-66
2023/06/13 06:25:39;;;;;;;1.17;0.60;;;;;;;24.94;48.16;101041.78;5006636;28;20526;-66
2023/06/13 06:28:04;;;;;;;0.95;0.40;;;;;;;24.94;47.80;101035.50;5004712;28;20025;-66
2023/06/13 06:30:30;;;;;;;0.73;0.50;;;;;;;24.93;47.78;101034.72;5011482;28;20639;-66
2023/06/13 06:32:56;;;;;;;1.13;0.30;;;;;;;24.91;47.57;101042.66;5001821;28;20038;-66
2023/06/13 06:35:21;;;;;;;2.33;0.50;;;;;;;24.79;48.12;101037.94;4994645;28;20033;-66
2023/06/13 06:37:47;;;;;;;0.63;0.47;;;;;;;24.86;48.02;101039.69;5011083;28;20022;-67
2023/06/13 06:40:12;;;;;;;0.93;0.40;;;;;;;24.85;48.10;101041.66;5011204;28;20044;-67
2023/06/13 06:42:38;;;;;;;1.00;0.60;;;;;;;24.94;47.30;101041.00;4985109;28;20038;-66
2023/06/13 06:45:29;;;;;;;0.73;0.70;;;;;;;24.94;47.26;101041.78;4993702;28;20034;-67
2023/06/13 06:47:56;;;;;;;0.95;0.50;;;;;;;25.11;47.00;101041.63;4954234;28;20097;-66
2023/06/13 06:50:24;;;;;;;0.50;0.43;;;;;;;25.02;46.62;101050.59;4952493;28;20043;-66
2023/06/13 06:52:49;;;;;;;0.10;0.10;;;;;;;25.09;46.89;101046.84;4948849;29;20075;-66
2023/06/13 06:55:15;;;;;;;0.63;0.30;;;;;;;25.14;46.90;101043.50;4947547;28;20078;-67
2023/06/13 06:57:41;;;;;;;0.57;0.43;;;;;;;25.08;46.07;101045.28;4934903;28;20656;-66
2023/06/13 07:00:27;;;;;;;0.60;0.40;;;;;;;25.03;45.86;101044.63;4954796;28;20063;-67
2023/06/13 07:02:54;;;;;;;0.52;0.38;;;;;;;25.10;46.43;101042.84;4912309;29;20079;-66
2023/06/13 07:05:22;;;;;;;1.02;0.55;;;;;;;25.28;46.31;101037.53;4912342;29;20067;-66
2023/06/13 07:07:48;;;;;;;1.08;0.55;;;;;;;25.30;45.87;101046.88;4911872;29;20040;-66
2023/06/13 07:10:13;;;;;;;1.27;0.93;;;;;;;25.44;46.17;101045.66;4909642;29;20958;-67
2023/06/13 07:12:39;;;;;;;1.08;0.65;;;;;;;25.59;46.20;101052.25;4918873;29;20060;-67
2023/06/13 07:15:06;;;;;;;0.32;0.30;;;;;;;25.71;45.51;101045.88;4909401;29;20051;-67
2023/06/13 07:17:34;;;;;;;2.88;0.50;;;;;;;25.73;45.25;101046.97;4911531;29;20054;-66
2023/06/13 07:20:00;;;;;;;0.43;0.43;;;;;;;25.79;45.41;101044.41;4912062;29;20036;-66
2023/06/13 07:22:26;;;;;;;0.50;0.30;;;;;;;25.87;45.61;101038.19;4917472;29;20093;-66
2023/06/13 07:24:51;;;;;;;0.85;0.45;;;;;;;26.01;45.00;101034.13;4923886;28;20769;-66
2023/06/13 07:27:17;;;;;;;2.42;0.65;;;;;;;26.18;43.46;101037.47;4944924;28;20577;-66
2023/06/13 07:29:43;;;;;;;0.40;0.30;;;;;;;26.15;42.75;101038.38;4949830;28;20106;-66
2023/06/13 07:32:09;;;;;;;1.27;0.50;;;;;;;26.32;42.44;101037.72;4943829;28;20139;-66
2023/06/13 07:34:34;;;;;;;0.68;0.50;;;;;;;26.36;42.20;101029.28;4941499;28;20062;-66
2023/06/13 07:37:00;;;;;;;0.77;0.40;;;;;;;26.32;42.24;101028.66;4950509;28;20479;-66
2023/06/13 07:39:26;;;;;;;0.85;0.43;;;;;;;26.32;42.84;101032.19;4962811;28;20172;-66
2023/06/13 07:41:51;;;;;;;1.35;0.40;;;;;;;26.55;43.81;101042.72;5004391;28;20064;-66
2023/06/13 07:44:17;;;;;;;0.50;0.30;;;;;;;26.53;41.72;101028.59;5010130;28;20072;-66
2023/06/13 07:46:43;;;;;;;0.68;0.40;;;;;;;26.67;43.67;101041.09;5008024;28;20044;-66
2023/06/13 07:49:10;;;;;;;1.27;0.47;;;;;;;26.85;42.62;101038.38;4999014;28;20034;-66
2023/06/13 07:51:37;;;;;;;1.15;0.47;;;;;;;26.91;42.17;101033.00;5010069;28;20104;-66
2023/06/13 07:54:02;;;;;;;0.40;0.30;;;;;;;27.09;41.76;101044.13;4993215;28;20057;-66
2023/06/13 07:56:28;;;;;;;0.85;0.50;;;;;;;27.13;42.07;101036.44;4980634;28;20038;-66
2023/06/13 07:58:53;;;;;;;0.47;0.30;;;;;;;27.20;41.35;101027.84;5005390;28;20046;-66
2023/06/13 08:01:22;;;;;;;1.08;0.40;;;;;;;27.46;42.27;101029.91;5004998;28;20018;-66
2023/06/13 08:03:47;;;;;;;0.73;0.40;;;;;;;27.54;42.02;101033.91;5000093;28;20127;-66
2023/06/13 08:06:13;;;;;;;0.40;0.40;;;;;;;27.58;41.47;101031.72;5010454;28;20549;-66
2023/06/13 08:08:38;;;;;;;0.73;0.50;;;;;;;27.73;40.32;101039.41;5009737;28;20067;-66
2023/06/13 08:11:04;;;;;;;0.95;0.70;;;;;;;27.76;40.46;101030.94;5004266;28;20029;-67
2023/06/13 08:13:29;;;;;;;0.45;0.40;;;;;;;27.89;40.69;101039.09;5009995;28;20046;-66
2023/06/13 08:15:55;;;;;;;1.13;0.60;;;;;;;28.05;40.64;101036.03;4978781;28;20144;-66
2023/06/13 08:18:20;;;;;;;0.52;0.40;;;;;;;28.23;39.95;101042.28;4999880;28;20026;-66
2023/06/13 08:20:48;;;;;;;0.90;0.35;;;;;;;28.18;39.48;101029.06;4993891;28;20044;-66
2023/06/13 08:23:14;;;;;;;1.35;0.65;;;;;;;28.22;40.17;101023.34;4999235;28;20087;-66
2023/06/13 08:25:41;;;;;;;0.30;0.28;;;;;;;28.23;39.09;101039.50;4992281;28;20075;-66
2023/06/13 08:28:07;;;;;;;1.48;0.57;;;;;;;28.32;38.38;101036.69;4990911;28;20081;-66
2023/06/13 08:30:33;;;;;;;0.30;0.30;;;;;;;28.64;38.38;101034.44;4979586;28;20053;-66
2023/06/13 08:33:01;;;;;;;1.10;0.43;;;;;;;28.74;36.46;101030.38;5010207;28;20516;-66
2023/06/13 08:35:28;;;;;;;0.70;0.47;;;;;;;28.74;34.40;101038.72;4998053;28;20029;-66
2023/06/13 08:37:54;;;;;;;0.45;0.32;;;;;;;28.46;34.46;101026.94;4998702;28;20026;-66
2023/06/13 08:40:20;;;;;;;0.75;0.50;;;;;;;28.64;35.50;101031.66;5008850;28;20486;-66
2023/06/13 08:42:46;;;;;;;0.40;0.40;;;;;;;28.79;35.70;101030.50;5008633;28;20048;-66
2023/06/13 08:45:12;;;;;;;1.45;0.55;;;;;;;28.94;35.93;101036.88;5016650;28;20050;-66
2023/06/13 08:47:39;;;;;;;0.52;0.35;;;;;;;28.97;35.38;101026.88;5009311;28;20042;-66
2023/06/13 08:50:08;;;;;;;0.40;0.30;;;;;;;29.00;36.38;101037.00;5006999;28;20485;-66
2023/06/13 08:52:41;;;;;;;0.38;0.38;;;;;;;29.03;35.62;101034.06;5019608;28;20024;-66
2023/06/13 08:55:12;;;;;;;0.35;0.30;;;;;;;29.26;35.77;101030.56;5002922;28;20129;-66
2023/06/13 08:57:41;;;;;;;0.60;0.40;;;;;;;29.35;34.59;101032.47;4991365;28;20060;-66
2023/06/13 09:00:12;;;;;;;2.13;0.55;;;;;;;29.40;34.78;101031.84;4991434;28;20088;-66
2023/06/13 09:02:45;;;;;;;1.15;0.60;;;;;;;29.41;35.17;101027.81;5009776;28;20116;-66
2023/06/13 09:05:15;;;;;;;0.70;0.30;;;;;;;29.52;34.70;101028.00;4986994;28;20120;-66
2023/06/13 09:07:42;;;;;;;0.52;0.35;;;;;;;29.53;34.43;101024.00;5019334;28;20041;-66
2023/06/13 09:10:11;;;;;;;0.50;0.50;;;;;;;29.64;33.60;101026.97;4990932;28;20029;-66
2023/06/13 09:12:45;;;;;;;0.25;0.20;;;;;;;29.70;35.94;101021.53;5006768;28;20060;-66
2023/06/13 09:15:11;;;;;;;1.70;0.50;;;;;;;29.93;35.92;101029.03;5009389;28;20081;-67
2023/06/13 09:17:36;;;;;;;3.50;0.40;;;;;;;29.82;35.37;101024.06;4991466;28;20123;-67
2023/06/13 09:20:06;;;;;;;0.30;0.30;;;;;;;30.00;34.36;101031.44;5000086;28;20460;-66
2023/06/13 09:22:38;;;;;;;0.60;0.40;;;;;;;30.27;34.79;101026.34;4979424;28;20478;-67
2023/06/13 09:25:04;;;;;;;0.43;0.35;;;;;;;30.23;34.52;101031.34;5009108;28;20040;-66
2023/06/13 09:27:30;;;;;;;0.57;0.43;;;;;;;30.39;34.34;101027.31;5008581;28;20022;-66
2023/06/13 09:30:00;;;;;;;0.20;0.17;;;;;;;30.65;33.56;101025.44;5011986;28;20037;-67
2023/06/13 09:32:26;;;;;;;1.08;0.52;;;;;;;30.62;33.56;101022.84;5016505;28;20409;-66
2023/06/13 09:34:51;;;;;;;1.17;0.50;;;;;;;30.64;34.36;101017.56;5008782;28;20026;-67
2023/06/13 09:37:17;;;;;;;0.30;0.30;;;;;;;30.71;32.77;101020.72;4991995;28;20107;-67
2023/06/13 09:39:50;;;;;;;0.65;0.47;;;;;;;30.69;33.16;101016.88;5000323;28;20449;-67
2023/06/13 09:42:23;;;;;;;0.75;0.40;;;;;;;30.68;32.52;101018.13;4998122;28;20033;-67
2023/06/13 09:44:50;;;;;;;0.82;0.60;;;;;;;30.64;32.95;101015.53;5000739;28;20033;-67
2023/06/13 09:47:25;;;;;;;0.70;0.38;;;;;;;30.77;32.99;101010.44;5014040;28;20021;-67
2023/06/13 09:49:58;;;;;;;0.60;0.40;;;;;;;30.89;32.42;101011.38;5006184;28;20046;-67
2023/06/13 09:52:24;;;;;;;1.17;0.30;;;;;;;30.85;32.90;101013.59;5016016;28;20118;-66
2023/06/13 09:54:51;;;;;;;0.73;0.45;;;;;;;31.06;32.11;101013.13;5017196;28;20037;-67
2023/06/13 09:57:17;;;;;;;0.30;0.30;;;;;;;31.17;31.35;101014.50;5012397;28;20073;-67
2023/06/13 10:00:08;;;;;;;0.32;0.30;;;;;;;31.01;31.52;101013.06;4993387;28;20046;-67
2023/06/13 10:02:36;;;;;;;0.57;0.47;;;;;;;31.46;31.38;101009.53;4968205;28;20440;-67
2023/06/13 10:05:02;;;;;;;0.52;0.40;;;;;;;31.44;32.70;101012.06;4979463;28;20045;-66
2023/06/13 10:07:28;;;;;;;0.60;0.40;;;;;;;31.43;32.78;101012.56;4974544;28;20057;-66
2023/06/13 10:09:54;;;;;;;0.90;0.43;;;;;;;31.59;33.32;101007.16;4970249;28;20057;-66
2023/06/13 10:12:21;;;;;;;0.70;0.50;;;;;;;31.85;33.39;100999.56;4977051;28;20832;-66
2023/06/13 10:15:00;;;;;;;0.75;0.43;;;;;;;31.90;33.53;100995.28;4978591;28;20166;-67
2023/06/13 10:17:29;;;;;;;1.38;0.40;;;;;;;32.07;32.50;100998.25;4972817;28;20042;-66
2023/06/13 10:20:01;;;;;;;0.55;0.40;;;;;;;32.01;31.89;100995.41;4972956;28;20525;-66
2023/06/13 10:22:27;;;;;;;1.35;0.55;;;;;;;31.84;32.35;100989.66;4983333;28;20533;-67
2023/06/13 10:24:55;;;;;;;0.70;0.40;;;;;;;31.63;33.14;100985.41;4968224;28;20062;-67
2023/06/13 10:27:22;;;;;;;0.98;0.52;;;;;;;31.66;33.51;100987.22;4966384;28;20150;-67
2023/06/13 10:30:09;;;;;;;0.40;0.38;;;;;;;31.71;33.42;100982.94;4969315;28;20534;-67
2023/06/13 10:32:56;;;;;;;0.68;0.57;;;;;;;31.86;33.56;100980.81;4970008;28;20050;-68
2023/06/13 10:35:40;;;;;;;0.52;0.50;;;;;;;31.56;31.90;100985.84;4969326;28;20049;-67
2023/06/13 10:38:26;;;;;;;1.02;0.50;;;;;;;31.59;32.49;100979.28;4971252;28;20030;-66
2023/06/13 10:41:10;;;;;;;0.50;0.40;;;;;;;31.72;32.48;100979.69;5010136;28;20045;-67
2023/06/13 10:43:46;;;;;;;0.70;0.50;;;;;;;32.00;32.27;100982.72;5010813;28;20084;-67
2023/06/13 10:46:12;;;;;;;2.63;0.50;;;;;;;32.08;31.79;100975.44;5012013;28;20124;-67
2023/06/13 10:48:39;;;;;;;0.90;0.50;;;;;;;32.37;31.52;100968.78;5010800;28;20088;-67
2023/06/13 10:51:09;;;;;;;1.00;0.60;;;;;;;32.58;32.13;100975.78;4992275;28;20037;-67
2023/06/13 10:53:34;;;;;;;0.85;0.60;;;;;;;32.79;32.30;100975.13;5004907;28;20036;-67
2023/06/13 10:56:01;;;;;;;3.28;0.55;;;;;;;32.69;32.83;100976.63;4993943;28;20021;-67
2023/06/13 10:58:28;;;;;;;2.13;0.80;;;;;;;32.60;31.69;100962.88;5001880;28;20113;-67
2023/06/13 11:00:53;;;;;;;1.33;0.70;;;;;;;32.63;32.07;100967.47;5012254;28;20054;-67
2023/06/13 11:03:18;;;;;;;0.90;0.50;;;;;;;32.95;32.20;100970.16;5011839;28;20057;-67
2023/06/13 11:05:44;;;;;;;0.80;0.50;;;;;;;32.81;32.80;100966.28;5005740;28;20045;-66
2023/06/13 11:08:20;;;;;;;1.95;0.85;;;;;;;32.97;32.19;100970.41;5000259;28;20129;-67
2023/06/13 11:10:48;;;;;;;1.27;0.60;;;;;;;32.97;31.58;100960.00;5012087;28;20049;-67
2023/06/13 11:13:25;;;;;;;1.58;0.50;;;;;;;32.79;30.95;100954.84;5009808;28;20018;-67
2023/06/13 11:15:55;;;;;;;0.50;0.43;;;;;;;32.74;31.81;100958.34;5017774;28;20048;-67
2023/06/13 11:18:20;;;;;;;0.52;0.52;;;;;;;32.78;31.57;100948.50;5015390;28;20838;-67
2023/06/13 11:20:51;;;;;;;0.57;0.50;;;;;;;33.09;30.58;100955.22;5011188;28;20050;-67
2023/06/13 11:23:18;;;;;;;0.93;0.50;;;;;;;33.33;28.34;100947.94;5007225;28;20041;-67
2023/06/13 11:25:45;;;;;;;1.33;0.57;;;;;;;33.21;27.90;100959.56;5010794;28;20037;-69
2023/06/13 11:28:14;;;;;;;1.15;0.55;;;;;;;33.10;28.91;100949.13;5009265;28;20033;-67